Time;durP1;ratioP1;P1;durP2;ratioP2;P2;SDS_P1;SDS_P2;PMS_P1;PMS_P2;Temp;Humidity;BMP_temperature;BMP_pressure;BME280_temperature;BME280_humidity;BME280_pressure;Samples;Min_cycle;Max_cycle;Signal;HPM_P1;HPM_P2
2023/07/08 00:00:52;;;;;;;14.32;7.88;;;16.10;99.90;;;;;;5016343;28;20479;-56
2023/07/08 00:03:19;;;;;;;16.08;8.50;;;16.10;99.90;;;;;;5033762;28;20041;-56
2023/07/08 00:05:47;;;;;;;20.85;8.85;;;16.10;99.90;;;;;;5034153;28;20021;-56
2023/07/08 00:08:19;;;;;;;14.00;7.60;;;16.10;99.90;;;;;;5037272;28;20403;-56
2023/07/08 00:10:45;;;;;;;14.55;8.63;;;16.00;99.90;;;;;;5037971;28;20036;-56
2023/07/08 00:13:11;;;;;;;14.95;8.77;;;16.00;99.90;;;;;;5037758;28;20465;-56
2023/07/08 00:15:38;;;;;;;15.38;8.32;;;16.00;99.90;;;;;;5037833;28;20041;-56
2023/07/08 00:18:16;;;;;;;14.50;8.80;;;16.00;99.90;;;;;;5037953;28;20044;-56
2023/07/08 00:20:45;;;;;;;14.27;8.45;;;16.00;99.90;;;;;;5037893;28;20048;-56
2023/07/08 00:23:12;;;;;;;16.02;8.55;;;16.00;99.90;;;;;;5037512;28;20520;-56
2023/07/08 00:25:38;;;;;;;17.55;8.70;;;16.00;99.90;;;;;;5037545;28;20029;-56
2023/07/08 00:28:20;;;;;;;20.15;9.40;;;15.90;99.90;;;;;;5036384;28;20382;-56
2023/07/08 00:30:47;;;;;;;16.33;7.55;;;15.90;99.90;;;;;;5036145;28;20056;-56
2023/07/08 00:33:16;;;;;;;12.77;8.20;;;15.90;99.90;;;;;;5037587;28;20041;-56
2023/07/08 00:35:43;;;;;;;12.75;8.32;;;15.90;99.90;;;;;;5019776;28;20038;-56
2023/07/08 00:38:27;;;;;;;16.63;7.97;;;15.90;99.90;;;;;;5019572;28;20133;-56
2023/07/08 00:41:16;;;;;;;14.25;8.57;;;15.80;99.90;;;;;;5036285;28;20067;-56
2023/07/08 00:43:57;;;;;;;18.23;8.50;;;15.80;99.90;;;;;;5037388;28;20029;-56
2023/07/08 00:46:31;;;;;;;19.25;8.40;;;15.80;99.90;;;;;;5037224;28;20116;-56
2023/07/08 00:49:06;;;;;;;13.30;8.43;;;15.80;99.90;;;;;;5019581;28;20068;-56
2023/07/08 00:51:34;;;;;;;16.65;8.85;;;15.70;99.90;;;;;;5037230;28;20032;-56
2023/07/08 00:54:00;;;;;;;15.70;8.35;;;15.70;99.90;;;;;;5037259;28;20031;-56
2023/07/08 00:56:35;;;;;;;16.17;8.38;;;15.70;99.90;;;;;;5035909;28;20112;-56
2023/07/08 00:59:06;;;;;;;15.23;7.90;;;15.70;99.90;;;;;;5037017;28;20399;-56
2023/07/08 01:01:36;;;;;;;16.30;8.93;;;15.70;99.90;;;;;;5019150;28;20036;-56
2023/07/08 01:04:22;;;;;;;15.20;8.45;;;15.70;99.90;;;;;;5037010;28;20101;-56
2023/07/08 01:06:57;;;;;;;17.77;8.52;;;15.70;99.90;;;;;;5037076;28;20116;-56
2023/07/08 01:09:30;;;;;;;15.25;8.30;;;15.70;99.90;;;;;;5036634;28;20070;-56
2023/07/08 01:12:02;;;;;;;18.17;8.52;;;15.70;99.90;;;;;;5036904;28;20069;-56
2023/07/08 01:14:31;;;;;;;15.93;8.02;;;15.70;99.90;;;;;;5036687;28;20029;-56
2023/07/08 01:16:58;;;;;;;13.88;8.20;;;15.70;99.90;;;;;;5036954;28;20041;-56
2023/07/08 01:19:31;;;;;;;15.65;8.55;;;15.70;99.90;;;;;;5035641;28;20061;-56
2023/07/08 01:22:03;;;;;;;13.65;8.98;;;15.70;99.90;;;;;;5035349;28;20041;-56
2023/07/08 01:24:33;;;;;;;18.73;8.35;;;15.70;99.90;;;;;;5036777;28;20033;-56
2023/07/08 01:27:01;;;;;;;16.05;8.05;;;15.60;99.90;;;;;;5036527;28;20056;-56
2023/07/08 01:29:28;;;;;;;21.63;9.50;;;15.60;99.90;;;;;;5036590;28;20033;-56
2023/07/08 01:32:02;;;;;;;19.52;8.88;;;15.60;99.90;;;;;;5018855;28;20029;-56
2023/07/08 01:34:37;;;;;;;15.63;8.77;;;15.60;99.90;;;;;;5036350;28;20034;-56
2023/07/08 01:37:05;;;;;;;16.88;8.10;;;15.60;99.90;;;;;;5036258;28;20025;-56
2023/07/08 01:39:32;;;;;;;16.30;7.70;;;15.60;99.90;;;;;;5036352;28;20037;-56
2023/07/08 01:41:59;;;;;;;15.10;8.73;;;15.50;99.90;;;;;;5036171;28;20022;-56
2023/07/08 01:44:31;;;;;;;15.77;8.10;;;15.50;99.90;;;;;;5036196;28;20494;-56
2023/07/08 01:47:03;;;;;;;14.85;8.48;;;15.50;99.90;;;;;;5036220;28;20032;-56
2023/07/08 01:49:30;;;;;;;15.20;7.90;;;15.50;99.90;;;;;;5018302;28;20112;-56
2023/07/08 01:51:58;;;;;;;17.45;8.70;;;15.40;99.90;;;;;;5036334;28;20044;-56
2023/07/08 01:54:25;;;;;;;27.48;9.88;;;15.40;99.90;;;;;;5018601;28;20054;-56
2023/07/08 01:56:56;;;;;;;13.60;8.57;;;15.60;99.90;;;;;;5036002;28;20095;-56
2023/07/08 01:59:22;;;;;;;21.83;9.15;;;15.50;99.90;;;;;;5034854;28;20037;-56
2023/07/08 02:01:54;;;;;;;19.25;9.20;;;15.40;99.90;;;;;;5018049;28;20716;-56
2023/07/08 02:04:21;;;;;;;18.77;8.60;;;15.40;99.90;;;;;;5034601;28;20037;-56
2023/07/08 02:06:58;;;;;;;15.48;8.52;;;15.30;99.90;;;;;;5018021;28;20116;-57
2023/07/08 02:09:25;;;;;;;15.93;8.63;;;15.40;99.90;;;;;;5035583;28;20040;-56
2023/07/08 02:11:52;;;;;;;16.23;9.18;;;15.40;99.90;;;;;;5034393;28;20041;-56
2023/07/08 02:14:19;;;;;;;14.27;8.18;;;15.30;99.90;;;;;;5035664;28;20031;-56
2023/07/08 02:16:45;;;;;;;14.57;8.20;;;15.30;99.90;;;;;;5035607;28;20056;-56
2023/07/08 02:19:11;;;;;;;15.80;8.45;;;15.20;99.90;;;;;;5035651;28;20029;-56
2023/07/08 02:21:38;;;;;;;17.48;8.30;;;15.10;99.90;;;;;;5035394;28;20041;-56
2023/07/08 02:24:05;;;;;;;13.90;8.07;;;15.10;99.90;;;;;;5017577;28;20491;-56
2023/07/08 02:26:32;;;;;;;16.40;9.43;;;15.10;99.90;;;;;;5017761;28;20049;-56
2023/07/08 02:28:59;;;;;;;14.98;8.43;;;15.10;99.90;;;;;;5017691;28;20487;-56
2023/07/08 02:31:25;;;;;;;16.02;8.10;;;15.10;99.90;;;;;;5035483;28;20029;-56
2023/07/08 02:33:52;;;;;;;16.77;8.20;;;15.10;99.90;;;;;;5035266;28;20033;-56
2023/07/08 02:36:18;;;;;;;15.05;9.13;;;15.00;99.90;;;;;;5035285;28;20029;-56
2023/07/08 02:38:44;;;;;;;16.15;8.70;;;14.90;99.90;;;;;;5035149;28;20360;-56
2023/07/08 02:41:11;;;;;;;14.38;8.70;;;14.90;99.90;;;;;;5017422;28;20053;-56
2023/07/08 02:43:38;;;;;;;14.98;8.45;;;14.80;99.90;;;;;;5035153;28;20128;-56
2023/07/08 02:46:05;;;;;;;17.33;9.38;;;14.80;99.90;;;;;;5035018;28;20441;-56
2023/07/08 02:48:31;;;;;;;14.77;8.90;;;14.70;99.90;;;;;;5035051;28;20099;-56
2023/07/08 02:51:01;;;;;;;18.63;9.45;;;14.70;99.90;;;;;;5035116;28;20025;-56
2023/07/08 02:53:27;;;;;;;17.23;9.27;;;14.70;99.90;;;;;;5017285;28;20368;-56
2023/07/08 02:55:53;;;;;;;15.98;8.95;;;14.70;99.90;;;;;;5035004;28;20079;-56
2023/07/08 02:58:19;;;;;;;20.00;9.50;;;14.70;99.90;;;;;;5034833;28;20063;-56
2023/07/08 03:00:45;;;;;;;23.75;10.15;;;14.70;99.90;;;;;;5034888;28;20034;-56
2023/07/08 03:03:11;;;;;;;18.33;9.32;;;14.70;99.90;;;;;;5034634;28;20367;-56
2023/07/08 03:05:37;;;;;;;19.27;9.63;;;14.70;99.90;;;;;;5017365;28;20029;-56
2023/07/08 03:08:03;;;;;;;16.27;9.95;;;14.70;99.90;;;;;;5034414;28;20049;-56
2023/07/08 03:10:29;;;;;;;16.50;9.40;;;14.60;99.90;;;;;;5017255;28;20029;-56
2023/07/08 03:12:55;;;;;;;13.73;9.07;;;14.60;99.90;;;;;;5034537;28;20507;-56
2023/07/08 03:15:22;;;;;;;18.80;8.88;;;14.60;99.90;;;;;;5033123;28;20029;-56
2023/07/08 03:17:48;;;;;;;19.08;9.68;;;14.60;99.90;;;;;;5033241;28;20052;-56
2023/07/08 03:20:14;;;;;;;17.77;9.27;;;14.60;99.90;;;;;;5016844;28;20400;-56
2023/07/08 03:22:40;;;;;;;15.43;8.73;;;14.60;99.90;;;;;;5034529;28;20526;-56
2023/07/08 03:25:06;;;;;;;15.10;9.25;;;14.60;99.90;;;;;;5034517;28;20124;-56
2023/07/08 03:27:32;;;;;;;15.73;8.95;;;14.60;99.90;;;;;;5033366;28;20044;-56
2023/07/08 03:29:59;;;;;;;15.88;8.73;;;14.60;99.90;;;;;;5016684;28;20419;-56
2023/07/08 03:32:26;;;;;;;15.32;8.85;;;14.60;99.90;;;;;;5016682;28;20032;-56
2023/07/08 03:34:51;;;;;;;13.50;8.13;;;14.60;99.90;;;;;;5034303;28;20030;-56
2023/07/08 03:37:19;;;;;;;13.45;8.40;;;14.60;99.90;;;;;;5016726;28;20033;-56
2023/07/08 03:39:45;;;;;;;15.63;8.00;;;14.60;99.90;;;;;;5016680;28;20110;-56
2023/07/08 03:42:11;;;;;;;14.48;7.65;;;14.70;99.90;;;;;;5034678;28;20079;-57
2023/07/08 03:44:37;;;;;;;16.30;8.52;;;14.70;99.90;;;;;;5038513;28;20032;-56
2023/07/08 03:47:03;;;;;;;16.35;8.25;;;14.70;99.90;;;;;;5018752;28;20078;-56
2023/07/08 03:49:29;;;;;;;13.63;7.90;;;14.70;99.90;;;;;;5000955;28;20026;-56
2023/07/08 03:51:56;;;;;;;17.10;9.15;;;14.80;99.90;;;;;;5001007;28;20534;-57
2023/07/08 03:54:24;;;;;;;17.60;8.20;;;14.80;99.90;;;;;;5018559;28;20113;-56
2023/07/08 03:56:51;;;;;;;21.95;7.90;;;14.90;99.90;;;;;;5000874;28;20030;-56
2023/07/08 03:59:18;;;;;;;13.20;7.63;;;14.90;99.90;;;;;;5000960;28;20503;-56
2023/07/08 04:01:45;;;;;;;14.90;8.70;;;14.90;99.90;;;;;;5000675;28;20113;-56
2023/07/08 04:04:14;;;;;;;14.07;9.07;;;14.90;99.90;;;;;;5018292;28;20214;-56
2023/07/08 04:06:43;;;;;;;16.75;8.60;;;15.00;99.90;;;;;;5000701;28;20018;-56
2023/07/08 04:09:09;;;;;;;17.63;8.75;;;15.00;99.90;;;;;;5018165;28;20045;-56
2023/07/08 04:11:35;;;;;;;13.65;8.77;;;15.10;99.90;;;;;;5000515;28;20030;-56
2023/07/08 04:14:01;;;;;;;19.92;10.02;;;15.10;99.90;;;;;;5018244;28;20022;-56
2023/07/08 04:16:29;;;;;;;13.93;8.82;;;15.20;99.90;;;;;;5018274;28;20026;-56
2023/07/08 04:18:56;;;;;;;16.98;8.65;;;15.30;99.90;;;;;;5017921;28;20040;-56
2023/07/08 04:21:27;;;;;;;15.93;8.90;;;15.30;99.90;;;;;;5017987;28;20057;-56
2023/07/08 04:23:53;;;;;;;15.38;9.10;;;15.40;99.90;;;;;;5017983;28;20037;-57
2023/07/08 04:26:19;;;;;;;18.33;8.63;;;15.40;99.90;;;;;;5017792;28;20060;-56
2023/07/08 04:28:45;;;;;;;23.67;9.93;;;15.50;99.90;;;;;;5000313;28;20087;-57
2023/07/08 04:31:11;;;;;;;22.10;9.52;;;15.50;99.90;;;;;;5017932;28;20068;-57
2023/07/08 04:33:37;;;;;;;16.65;9.00;;;15.60;99.90;;;;;;5017804;28;20108;-57
2023/07/08 04:36:04;;;;;;;18.90;9.82;;;15.60;99.90;;;;;;5017828;28;20045;-56
2023/07/08 04:38:31;;;;;;;18.02;9.18;;;15.80;99.90;;;;;;5017739;28;20033;-56
2023/07/08 04:40:57;;;;;;;16.98;9.52;;;15.90;99.90;;;;;;5017746;28;20080;-56
2023/07/08 04:43:28;;;;;;;23.58;11.15;;;15.90;99.90;;;;;;5017654;28;20022;-56
2023/07/08 04:45:55;;;;;;;20.10;10.90;;;15.80;99.90;;;;;;5027815;28;20025;-56
2023/07/08 04:48:24;;;;;;;20.13;10.32;;;15.90;99.90;;;;;;5037364;28;20037;-56
2023/07/08 04:50:51;;;;;;;18.55;9.93;;;16.10;99.90;;;;;;5037118;28;20060;-56
2023/07/08 04:53:17;;;;;;;25.48;10.60;;;16.20;99.90;;;;;;5037170;28;20040;-56
2023/07/08 04:55:47;;;;;;;19.63;9.20;;;16.30;99.90;;;;;;5037327;28;20061;-57
2023/07/08 04:58:13;;;;;;;29.08;11.90;;;16.20;99.90;;;;;;5037202;28;20021;-56
2023/07/08 05:00:39;;;;;;;24.08;10.30;;;16.40;99.90;;;;;;5037190;28;20116;-56
2023/07/08 05:03:05;;;;;;;22.40;11.15;;;16.20;99.90;;;;;;5037003;28;20470;-56
2023/07/08 05:05:31;;;;;;;20.08;11.05;;;16.40;99.90;;;;;;5036989;28;20021;-57
2023/07/08 05:07:56;;;;;;;19.98;10.88;;;16.60;99.90;;;;;;5019172;28;20048;-56
2023/07/08 05:10:22;;;;;;;18.98;11.45;;;16.60;99.90;;;;;;5036793;28;20029;-57
2023/07/08 05:12:49;;;;;;;21.42;11.20;;;16.80;99.90;;;;;;5036807;28;20037;-56
2023/07/08 05:15:15;;;;;;;20.92;10.43;;;16.90;99.90;;;;;;5036706;28;20091;-57
2023/07/08 05:17:42;;;;;;;25.55;10.90;;;17.00;99.90;;;;;;5036944;28;20353;-57
2023/07/08 05:20:11;;;;;;;23.67;11.30;;;17.10;99.90;;;;;;5036479;28;20064;-57
2023/07/08 05:22:37;;;;;;;27.55;11.98;;;17.20;99.90;;;;;;5036573;28;20483;-57
2023/07/08 05:25:05;;;;;;;19.13;10.48;;;17.30;99.90;;;;;;5036686;28;20108;-57
2023/07/08 05:27:33;;;;;;;22.35;11.63;;;17.30;99.90;;;;;;5036949;28;20036;-57
2023/07/08 05:30:05;;;;;;;23.25;12.27;;;17.40;99.90;;;;;;5036527;28;20030;-57
2023/07/08 05:32:31;;;;;;;24.60;11.27;;;17.60;99.90;;;;;;5036684;28;20467;-57
2023/07/08 05:34:57;;;;;;;23.95;12.38;;;17.70;99.90;;;;;;5036437;28;20034;-57
2023/07/08 05:37:24;;;;;;;25.95;12.80;;;17.80;99.90;;;;;;5036358;28;20029;-56
2023/07/08 05:39:55;;;;;;;38.05;14.82;;;17.90;99.90;;;;;;5018620;28;20033;-57
2023/07/08 05:42:21;;;;;;;35.97;16.38;;;18.10;99.90;;;;;;5036268;28;20040;-56
2023/07/08 05:44:48;;;;;;;38.13;16.48;;;18.20;99.90;;;;;;5036184;28;20029;-56
2023/07/08 05:47:14;;;;;;;33.92;16.17;;;18.30;99.90;;;;;;5018537;28;20029;-57
2023/07/08 05:49:41;;;;;;;36.75;16.70;;;18.40;99.90;;;;;;5036139;28;20026;-56
2023/07/08 05:52:10;;;;;;;36.10;15.90;;;18.40;99.90;;;;;;5035962;28;20044;-56
2023/07/08 05:54:38;;;;;;;37.47;15.90;;;18.50;99.90;;;;;;5036520;28;20037;-56
2023/07/08 05:57:06;;;;;;;39.40;16.50;;;18.60;99.90;;;;;;5036884;28;20029;-57
2023/07/08 05:59:32;;;;;;;38.60;17.35;;;18.80;99.90;;;;;;5036665;28;20615;-57
2023/07/08 06:01:58;;;;;;;47.38;17.40;;;18.80;99.90;;;;;;5036532;28;20033;-57
2023/07/08 06:04:24;;;;;;;32.83;15.93;;;18.90;99.90;;;;;;5036094;28;20481;-57
2023/07/08 06:06:50;;;;;;;29.98;15.82;;;19.00;99.90;;;;;;5036525;28;20029;-56
2023/07/08 06:09:16;;;;;;;41.97;16.50;;;19.30;99.90;;;;;;5036433;28;20048;-57
2023/07/08 06:11:42;;;;;;;44.60;16.05;;;19.30;99.90;;;;;;5036425;28;20028;-57
2023/07/08 06:14:07;;;;;;;32.10;15.00;;;19.30;99.90;;;;;;5036378;28;20026;-57
2023/07/08 06:16:34;;;;;;;34.85;17.13;;;19.40;99.90;;;;;;5018393;28;20026;-56
2023/07/08 06:19:00;;;;;;;32.85;17.08;;;19.50;99.90;;;;;;5036147;28;20034;-57
2023/07/08 06:21:26;;;;;;;27.25;14.77;;;19.70;99.90;;;;;;5018428;28;20041;-56
2023/07/08 06:23:52;;;;;;;35.45;16.13;;;19.80;99.90;;;;;;5035811;28;20713;-57
2023/07/08 06:26:18;;;;;;;27.50;15.32;;;20.00;99.90;;;;;;5035812;28;20688;-57
2023/07/08 06:28:44;;;;;;;30.88;15.05;;;20.10;99.90;;;;;;5036298;28;20056;-57
2023/07/08 06:31:10;;;;;;;29.85;13.60;;;20.20;99.90;;;;;;5036000;28;20029;-57
2023/07/08 06:33:36;;;;;;;28.20;12.82;;;20.30;99.90;;;;;;5036042;28;20399;-57
2023/07/08 06:36:02;;;;;;;20.27;11.82;;;20.50;99.90;;;;;;5035828;28;20033;-57
2023/07/08 06:38:28;;;;;;;26.63;13.77;;;20.50;99.90;;;;;;5035955;28;20033;-57
2023/07/08 06:40:54;;;;;;;32.63;12.05;;;20.70;99.90;;;;;;5035852;28;20474;-57
2023/07/08 06:43:20;;;;;;;32.03;14.73;;;20.90;99.90;;;;;;5018182;28;20030;-57
2023/07/08 06:45:54;;;;;;;31.35;13.82;;;20.90;99.90;;;;;;5017890;28;20654;-57
2023/07/08 06:48:20;;;;;;;22.58;12.57;;;21.10;99.90;;;;;;5035871;28;20036;-57
2023/07/08 06:50:47;;;;;;;24.67;11.65;;;21.10;99.90;;;;;;5035784;28;20454;-57
2023/07/08 06:53:13;;;;;;;26.27;12.40;;;21.30;99.90;;;;;;5035648;28;20394;-56
2023/07/08 06:55:39;;;;;;;27.63;12.20;;;21.50;99.90;;;;;;5035691;28;20459;-56
2023/07/08 06:58:05;;;;;;;27.38;12.27;;;21.40;99.90;;;;;;5035628;28;20107;-57
2023/07/08 07:00:31;;;;;;;21.88;12.07;;;21.60;99.90;;;;;;5035409;28;20052;-57
2023/07/08 07:03:00;;;;;;;26.02;12.75;;;21.80;99.90;;;;;;5035391;28;20382;-57
2023/07/08 07:05:26;;;;;;;24.45;11.65;;;21.90;99.80;;;;;;5035475;28;20101;-56
2023/07/08 07:07:52;;;;;;;20.42;9.43;;;22.00;98.90;;;;;;5035314;28;20021;-57
2023/07/08 07:10:19;;;;;;;21.92;9.32;;;22.40;98.70;;;;;;5034774;28;20108;-57
2023/07/08 07:12:45;;;;;;;18.50;9.55;;;22.80;98.00;;;;;;5034556;28;20051;-57
2023/07/08 07:15:11;;;;;;;22.90;8.90;;;23.20;96.30;;;;;;5034360;28;20104;-57
2023/07/08 07:17:37;;;;;;;16.05;8.57;;;23.60;96.00;;;;;;5015982;28;20596;-57
2023/07/08 07:20:05;;;;;;;15.80;8.25;;;23.90;94.00;;;;;;5035094;28;20490;-57
2023/07/08 07:22:31;;;;;;;26.42;9.60;;;24.20;93.10;;;;;;5035082;28;20049;-57
2023/07/08 07:58:49;;;;;;;12.18;6.45;;;26.90;73.40;;;;;;5092474;28;20433;-65
2023/07/08 08:01:15;;;;;;;10.43;6.50;;;27.40;68.70;;;;;;5092105;28;20028;-65
2023/07/08 08:03:41;;;;;;;14.07;7.13;;;27.50;72.20;;;;;;5092109;28;20032;-66
2023/07/08 08:06:07;;;;;;;16.25;6.40;;;27.50;67.10;;;;;;5092319;28;20028;-65
2023/07/08 08:08:33;;;;;;;15.07;7.82;;;28.00;70.70;;;;;;5092130;28;20441;-65
2023/07/08 08:10:59;;;;;;;12.30;6.85;;;28.40;66.70;;;;;;5092297;28;20039;-65
2023/07/08 08:13:25;;;;;;;11.73;6.03;;;28.60;65.70;;;;;;5091797;28;20373;-65
2023/07/08 08:15:57;;;;;;;11.80;6.28;;;28.80;59.90;;;;;;5091780;28;20186;-65
2023/07/08 08:18:23;;;;;;;12.05;5.10;;;29.00;57.10;;;;;;5091503;28;20020;-65
2023/07/08 08:20:51;;;;;;;11.05;5.72;;;29.00;58.10;;;;;;5091360;28;20227;-65
2023/07/08 08:23:17;;;;;;;10.68;6.38;;;29.50;58.70;;;;;;5056572;28;20021;-65
2023/07/08 08:25:42;;;;;;;10.80;6.55;;;29.10;56.40;;;;;;5073351;28;20035;-65
2023/07/08 08:28:08;;;;;;;10.02;5.85;;;28.80;59.90;;;;;;5091190;28;20107;-65
2023/07/08 08:30:35;;;;;;;12.63;6.82;;;29.30;56.10;;;;;;5091236;28;20531;-65
2023/07/08 08:33:01;;;;;;;9.52;6.28;;;29.20;58.90;;;;;;5091101;28;20024;-65
2023/07/08 08:35:27;;;;;;;15.80;6.80;;;29.70;54.70;;;;;;5091459;28;20126;-65
2023/07/08 08:37:55;;;;;;;12.45;6.55;;;29.80;55.40;;;;;;5073462;28;20044;-65
2023/07/08 08:40:22;;;;;;;13.15;5.85;;;29.40;55.40;;;;;;5091618;28;20032;-65
2023/07/08 08:43:00;;;;;;;14.15;6.72;;;29.90;57.20;;;;;;5091442;28;20020;-65
2023/07/08 08:45:28;;;;;;;11.25;5.90;;;30.10;54.60;;;;;;5091074;28;20058;-65
2023/07/08 08:48:03;;;;;;;12.85;5.68;;;29.90;52.90;;;;;;5090816;28;20043;-65
2023/07/08 08:50:47;;;;;;;14.68;7.15;;;30.20;53.90;;;;;;5091125;28;20099;-65
2023/07/08 08:53:16;;;;;;;12.63;6.47;;;30.30;55.00;;;;;;5091550;28;20028;-65
2023/07/08 08:55:42;;;;;;;13.25;7.05;;;30.60;54.60;;;;;;5081674;28;20037;-65
2023/07/08 08:58:26;;;;;;;10.93;5.38;;;30.80;55.10;;;;;;5066774;28;20051;-65
2023/07/08 09:01:02;;;;;;;11.85;5.95;;;31.20;51.60;;;;;;5023695;28;20066;-65
2023/07/08 09:03:37;;;;;;;12.43;7.07;;;31.20;50.00;;;;;;5057530;28;20382;-65
2023/07/08 09:06:15;;;;;;;12.70;6.63;;;31.40;50.50;;;;;;5057851;28;20037;-65
2023/07/08 09:08:42;;;;;;;12.15;5.28;;;31.70;50.40;;;;;;5057614;28;20028;-65
2023/07/08 09:11:32;;;;;;;13.65;5.85;;;31.70;54.10;;;;;;5057458;28;20025;-65
2023/07/08 09:13:58;;;;;;;10.00;6.07;;;31.90;47.60;;;;;;5057697;28;20045;-65
2023/07/08 09:17:05;;;;;;;17.45;7.53;;;31.80;48.20;;;;;;5057487;28;20075;-65
2023/07/08 09:19:36;;;;;;;10.98;6.38;;;32.00;49.60;;;;;;5057048;28;20029;-65
2023/07/08 09:22:14;;;;;;;12.02;6.57;;;32.00;48.10;;;;;;5056755;28;20094;-65
2023/07/08 09:24:46;;;;;;;11.88;5.78;;;32.00;48.80;;;;;;5056676;28;20033;-65
2023/07/08 09:27:11;;;;;;;10.95;6.07;;;31.90;48.90;;;;;;5056743;28;20029;-65
2023/07/08 09:29:37;;;;;;;9.50;5.25;;;32.10;48.70;;;;;;5056559;28;20025;-65
2023/07/08 09:32:17;;;;;;;12.50;5.65;;;32.10;50.20;;;;;;5056714;28;20056;-66
2023/07/08 09:34:55;;;;;;;11.88;6.22;;;32.40;47.80;;;;;;5038778;28;20084;-65
2023/07/08 09:37:29;;;;;;;7.82;5.22;;;32.10;42.90;;;;;;5056472;28;20106;-65
2023/07/08 09:39:57;;;;;;;12.70;6.80;;;31.60;44.10;;;;;;5056434;28;20060;-65
2023/07/08 09:42:34;;;;;;;10.88;6.03;;;31.70;43.80;;;;;;5056539;28;20470;-65
2023/07/08 09:45:11;;;;;;;11.65;5.93;;;30.50;46.20;;;;;;5056320;28;20044;-65
2023/07/08 09:47:39;;;;;;;12.63;5.95;;;30.80;48.60;;;;;;5056233;28;20091;-65
2023/07/08 09:50:27;;;;;;;26.17;9.02;;;32.00;48.70;;;;;;5056328;28;20029;-65
2023/07/08 09:53:04;;;;;;;15.85;6.93;;;31.00;46.90;;;;;;5038339;28;20474;-65
2023/07/08 09:55:30;;;;;;;11.25;5.55;;;31.00;47.10;;;;;;5046057;28;20056;-65
2023/07/08 09:58:01;;;;;;;16.65;6.68;;;31.50;44.30;;;;;;5076183;28;20084;-65
2023/07/08 10:00:34;;;;;;;18.35;7.13;;;30.70;47.20;;;;;;5076144;28;20094;-65
2023/07/08 10:03:06;;;;;;;18.67;7.50;;;30.40;47.60;;;;;;5076138;28;20470;-65
2023/07/08 10:05:43;;;;;;;12.02;7.03;;;30.00;46.80;;;;;;5075978;28;20028;-65
2023/07/08 10:08:42;;;;;;;14.00;7.28;;;28.90;48.60;;;;;;5076015;28;20046;-65
2023/07/08 10:11:50;;;;;;;9.52;6.47;;;29.40;49.60;;;;;;5068734;28;20551;-65
2023/07/08 10:14:22;;;;;;;11.10;6.10;;;29.50;51.90;;;;;;4958391;28;20031;-65
2023/07/08 10:16:48;;;;;;;9.52;5.53;;;29.80;49.00;;;;;;4974542;28;20133;-65
2023/07/08 10:19:17;;;;;;;11.40;5.90;;;29.70;53.20;;;;;;4974563;28;20162;-65
2023/07/08 10:21:56;;;;;;;11.02;5.85;;;29.70;53.00;;;;;;4974812;28;20038;-65
2023/07/08 10:24:34;;;;;;;12.85;6.55;;;29.60;54.30;;;;;;4974505;28;20547;-65
2023/07/08 10:27:11;;;;;;;11.77;6.18;;;29.00;53.70;;;;;;4974506;28;20045;-65
2023/07/08 10:29:53;;;;;;;8.77;6.28;;;29.00;53.20;;;;;;4958258;28;20043;-65
2023/07/08 10:32:31;;;;;;;12.27;6.75;;;29.20;52.50;;;;;;4974276;28;20258;-65
2023/07/08 10:35:22;;;;;;;8.95;6.78;;;29.40;52.60;;;;;;4974348;28;20173;-65
2023/07/08 10:38:00;;;;;;;11.02;6.43;;;29.30;54.80;;;;;;4974226;28;20030;-65
2023/07/08 10:40:36;;;;;;;10.52;6.30;;;30.10;52.50;;;;;;4974311;28;20046;-65
2023/07/08 10:43:16;;;;;;;8.50;6.07;;;30.80;51.00;;;;;;4974317;28;20117;-65
2023/07/08 10:46:10;;;;;;;11.52;6.53;;;30.90;49.40;;;;;;4974222;28;20061;-65
2023/07/08 10:48:39;;;;;;;11.73;5.93;;;31.30;48.30;;;;;;5038578;28;20032;-65
2023/07/08 10:51:41;;;;;;;13.25;6.40;;;32.20;47.10;;;;;;5074974;28;20047;-65
2023/07/08 10:54:10;;;;;;;12.07;6.45;;;32.60;46.10;;;;;;5075214;28;20047;-65
2023/07/08 10:56:40;;;;;;;9.77;5.95;;;32.20;45.70;;;;;;5057912;28;20036;-65
2023/07/08 10:59:44;;;;;;;8.63;6.10;;;32.30;44.40;;;;;;5054906;28;20037;-65
2023/07/08 11:02:36;;;;;;;9.00;5.53;;;32.80;47.40;;;;;;5055023;28;20075;-65
2023/07/08 11:05:21;;;;;;;9.70;6.05;;;33.30;44.00;;;;;;5054832;28;20544;-65
2023/07/08 11:08:03;;;;;;;14.55;6.82;;;32.60;42.40;;;;;;5054884;28;20071;-65
2023/07/08 11:10:35;;;;;;;9.07;6.22;;;33.50;41.70;;;;;;5054740;28;20028;-65
2023/07/08 11:13:30;;;;;;;8.90;5.78;;;33.80;38.10;;;;;;5054769;28;20371;-65
2023/07/08 11:15:59;;;;;;;11.20;6.18;;;33.70;39.00;;;;;;5033358;28;20037;-65
2023/07/08 11:18:47;;;;;;;12.52;6.20;;;33.40;36.20;;;;;;5054721;28;20029;-65
2023/07/08 11:21:41;;;;;;;20.05;7.20;;;32.90;37.80;;;;;;5054533;28;20032;-65
2023/07/08 11:24:46;;;;;;;14.38;6.45;;;33.00;39.30;;;;;;5025438;28;20112;-65
2023/07/08 11:27:28;;;;;;;11.18;6.97;;;33.40;38.40;;;;;;4953968;29;20054;-65
2023/07/08 11:30:03;;;;;;;14.27;6.10;;;33.40;40.80;;;;;;4954222;29;20043;-65
2023/07/08 11:32:31;;;;;;;8.43;5.43;;;31.60;39.50;;;;;;4938133;29;20054;-65
2023/07/08 11:35:00;;;;;;;8.07;5.60;;;31.80;38.10;;;;;;4954172;29;20047;-65
2023/07/08 11:37:29;;;;;;;12.48;7.05;;;31.80;38.00;;;;;;4954099;29;20043;-65
2023/07/08 11:40:05;;;;;;;9.40;5.97;;;31.10;40.20;;;;;;4937997;29;20035;-65
2023/07/08 11:42:40;;;;;;;7.85;5.60;;;31.60;46.10;;;;;;4954096;29;20051;-65
2023/07/08 11:45:27;;;;;;;10.10;5.95;;;32.20;40.10;;;;;;4954129;29;20063;-65
2023/07/08 11:47:53;;;;;;;14.70;6.07;;;32.00;40.10;;;;;;4953680;29;20043;-65
2023/07/08 11:50:31;;;;;;;12.15;5.22;;;32.80;42.40;;;;;;4938049;29;20036;-65
2023/07/08 11:53:11;;;;;;;8.45;5.60;;;33.40;39.30;;;;;;4954060;29;20078;-65
2023/07/08 11:55:57;;;;;;;10.27;5.18;;;33.70;39.70;;;;;;4962028;28;20046;-65
2023/07/08 11:58:29;;;;;;;8.52;5.28;;;32.20;35.60;;;;;;4972969;28;20055;-65
2023/07/08 12:00:59;;;;;;;8.13;5.70;;;32.20;36.60;;;;;;5014891;28;20402;-65
2023/07/08 12:03:46;;;;;;;12.02;6.60;;;31.60;36.20;;;;;;5074327;28;20037;-65
2023/07/08 12:06:38;;;;;;;9.77;5.35;;;32.10;36.30;;;;;;5074199;28;20469;-65
2023/07/08 12:09:27;;;;;;;11.60;6.47;;;31.60;35.80;;;;;;5035680;28;20135;-65
2023/07/08 12:12:05;;;;;;;10.55;5.43;;;31.40;38.90;;;;;;5074061;28;20544;-65
2023/07/08 12:14:31;;;;;;;10.95;6.43;;;31.70;38.20;;;;;;5074148;28;20024;-65
2023/07/08 12:16:58;;;;;;;9.95;5.60;;;32.10;37.50;;;;;;5073948;28;20082;-65
2023/07/08 12:19:28;;;;;;;16.58;7.63;;;32.40;36.70;;;;;;5074221;28;20039;-65
2023/07/08 12:21:55;;;;;;;9.57;5.88;;;32.00;38.80;;;;;;5074084;28;20033;-65
2023/07/08 12:24:26;;;;;;;11.65;6.88;;;32.60;39.20;;;;;;5073984;28;20029;-65
2023/07/08 12:26:52;;;;;;;7.97;5.50;;;32.90;40.10;;;;;;5073868;28;20060;-65
2023/07/08 12:29:18;;;;;;;9.30;5.60;;;33.60;37.80;;;;;;5073892;28;20482;-65
2023/07/08 12:31:45;;;;;;;9.20;5.45;;;33.80;37.10;;;;;;5055938;28;20028;-65
2023/07/08 12:34:13;;;;;;;13.55;6.72;;;34.10;41.40;;;;;;5075963;28;20024;-65
2023/07/08 12:36:39;;;;;;;8.55;6.18;;;34.50;37.30;;;;;;5077542;28;20047;-65
2023/07/08 12:39:06;;;;;;;8.43;5.35;;;34.80;32.90;;;;;;5077516;28;20452;-65
2023/07/08 12:41:35;;;;;;;13.70;6.40;;;33.80;32.30;;;;;;5077694;28;20133;-65
2023/07/08 12:44:02;;;;;;;9.95;5.60;;;33.50;34.60;;;;;;5077387;28;20039;-65
2023/07/08 12:46:29;;;;;;;10.05;5.18;;;33.20;37.40;;;;;;5077403;28;20044;-65
2023/07/08 12:48:55;;;;;;;8.05;5.22;;;33.90;38.20;;;;;;5077481;28;20052;-65
2023/07/08 12:51:26;;;;;;;7.35;5.53;;;34.10;34.70;;;;;;5077292;28;20036;-65
2023/07/08 12:53:53;;;;;;;8.90;5.05;;;34.50;33.40;;;;;;5077339;28;20021;-65
2023/07/08 12:56:22;;;;;;;8.98;5.65;;;34.00;34.40;;;;;;5062674;28;20102;-65
2023/07/08 12:58:52;;;;;;;10.55;5.53;;;33.10;34.00;;;;;;5057110;28;20036;-66
2023/07/08 13:01:25;;;;;;;12.10;5.43;;;32.00;36.00;;;;;;5057283;28;20029;-65
2023/07/08 13:03:56;;;;;;;8.63;5.28;;;32.10;36.80;;;;;;5057193;28;20040;-65
2023/07/08 13:06:22;;;;;;;;;;;31.40;35.50;;;;;;5057606;28;20470;-65
2023/07/08 13:08:49;;;;;;;10.60;6.05;;;31.50;37.90;;;;;;5057150;28;19947;-65
2023/07/08 13:11:18;;;;;;;7.63;5.72;;;32.60;39.70;;;;;;5056857;28;20375;-65
2023/07/08 13:13:57;;;;;;;7.47;5.17;;;33.10;38.90;;;;;;5056986;28;20032;-65
2023/07/08 13:16:28;;;;;;;7.85;5.55;;;33.50;36.60;;;;;;5056830;28;20085;-65
2023/07/08 13:18:54;;;;;;;7.80;5.22;;;33.10;36.20;;;;;;5056874;28;20033;-66
2023/07/08 13:21:20;;;;;;;13.23;5.70;;;33.40;40.80;;;;;;5056895;28;20033;-65
2023/07/08 13:23:46;;;;;;;8.35;5.82;;;33.30;37.10;;;;;;5056780;28;20033;-65
2023/07/08 13:26:15;;;;;;;14.18;6.38;;;33.20;36.60;;;;;;5038802;28;20036;-65